createdAt,value
2018-07-23T00:00:49.884Z,96679.00
2018-07-23T00:04:14.605Z,96686.48
2018-07-23T00:07:39.317Z,96680.88
2018-07-23T00:11:04.185Z,96681.97
2018-07-23T00:14:28.863Z,96678.25
2018-07-23T00:17:53.645Z,96677.88
2018-07-23T00:21:18.293Z,96674.23
2018-07-23T00:24:42.957Z,96671.94
2018-07-23T00:28:07.730Z,96671.01
2018-07-23T00:31:32.406Z,96673.86
2018-07-23T00:34:57.117Z,96673.67
2018-07-23T00:38:21.800Z,96670.78
2018-07-23T00:41:46.537Z,96661.45
2018-07-23T00:45:11.219Z,96658.49
2018-07-23T00:48:36.081Z,96667.39
2018-07-23T00:52:00.761Z,96674.12
2018-07-23T00:55:25.418Z,96666.38
2018-07-23T00:58:50.071Z,96666.65
2018-07-23T01:02:14.834Z,96654.98
2018-07-23T01:05:39.450Z,96655.91
2018-07-23T01:09:04.473Z,96656.16
2018-07-23T01:12:32.747Z,96658.04
2018-07-23T01:15:57.462Z,96660.36
2018-07-23T01:19:22.303Z,96662.84
2018-07-23T01:22:46.983Z,96658.06
2018-07-23T01:26:11.648Z,96663.33
2018-07-23T01:29:36.269Z,96666.50
2018-07-23T01:34:30.026Z,96669.87
2018-07-23T01:37:54.706Z,96672.53
2018-07-23T01:41:19.382Z,96673.83
2018-07-23T01:44:44.260Z,96668.61
2018-07-23T01:48:09.020Z,96669.06
2018-07-23T01:51:33.729Z,96661.77
2018-07-23T01:54:58.576Z,96663.11
2018-07-23T01:58:23.212Z,96659.27
2018-07-23T02:01:47.856Z,96661.84
2018-07-23T02:05:12.558Z,96665.05
2018-07-23T02:08:37.220Z,96665.95
2018-07-23T02:12:01.953Z,96662.67
2018-07-23T02:15:26.328Z,96660.57
2018-07-23T02:18:51.059Z,96666.62
2018-07-23T02:22:15.820Z,96667.17
2018-07-23T02:25:40.494Z,96665.34
2018-07-23T02:29:04.868Z,96665.85
2018-07-23T02:32:29.606Z,96665.13
2018-07-23T02:35:54.302Z,96662.85
2018-07-23T02:39:18.948Z,96659.28
2018-07-23T02:42:43.658Z,96666.17
2018-07-23T02:46:08.341Z,96656.59
2018-07-23T02:49:33.024Z,96665.38
2018-07-23T02:52:57.736Z,96662.85
2018-07-23T02:56:22.432Z,96658.52
2018-07-23T02:59:46.830Z,96663.73
2018-07-23T03:03:11.582Z,96673.16
2018-07-23T03:06:36.271Z,96668.77
2018-07-23T03:10:00.964Z,96664.41
2018-07-23T03:13:25.627Z,96668.45
2018-07-23T03:16:50.333Z,96679.91
2018-07-23T03:20:14.983Z,96681.33
2018-07-23T03:23:39.659Z,96680.40
2018-07-23T03:27:04.383Z,96695.98
2018-07-23T03:30:29.041Z,96690.77
2018-07-23T03:33:53.741Z,96696.13
2018-07-23T03:45:19.016Z,96703.82
2018-07-23T03:48:43.878Z,96701.98
2018-07-23T03:52:08.837Z,96704.40
2018-07-23T03:55:33.591Z,96707.02
2018-07-23T03:58:59.201Z,96713.52
2018-07-23T04:02:23.896Z,96715.89
2018-07-23T04:05:48.256Z,96720.18
2018-07-23T04:09:12.961Z,96720.91
2018-07-23T04:20:36.982Z,96731.27
2018-07-23T04:24:01.834Z,96731.28
2018-07-23T04:27:26.721Z,96734.48
2018-07-23T04:30:51.463Z,96738.77
2018-07-23T04:34:16.192Z,96737.92
2018-07-23T04:37:40.875Z,96745.21
2018-07-23T04:41:06.568Z,96754.39
2018-07-23T04:44:31.221Z,96747.61
2018-07-23T04:47:55.869Z,96748.91
2018-07-23T04:51:20.611Z,96750.94
2018-07-23T04:54:45.307Z,96747.23
2018-07-23T04:58:10.041Z,96740.45
2018-07-23T05:01:34.842Z,96747.95
2018-07-23T05:04:59.501Z,96747.71
2018-07-23T05:08:24.192Z,96756.64
2018-07-23T05:11:48.847Z,96760.47
2018-07-23T05:15:13.548Z,96766.98
2018-07-23T05:18:38.252Z,96764.23
2018-07-23T05:22:03.021Z,96769.97
2018-07-23T05:25:27.759Z,96764.86
2018-07-23T05:28:52.530Z,96763.94
2018-07-23T05:32:16.830Z,96768.41
2018-07-23T05:35:41.583Z,96765.72
2018-07-23T05:39:09.522Z,96771.30
2018-07-23T05:42:34.293Z,96768.42
2018-07-23T05:53:58.871Z,96776.20
2018-07-23T05:57:23.736Z,96783.70
2018-07-23T06:00:48.472Z,96778.11
2018-07-23T06:04:13.176Z,96784.27
2018-07-23T06:07:37.908Z,96786.73
2018-07-23T06:11:02.710Z,96783.45
2018-07-23T06:14:27.122Z,96780.64
2018-07-23T06:17:51.819Z,96791.66
2018-07-23T06:21:16.582Z,96795.42
2018-07-23T06:24:41.368Z,96798.28
2018-07-23T06:28:06.479Z,96801.03
2018-07-23T06:31:31.144Z,96799.61
2018-07-23T06:34:55.824Z,96799.41
2018-07-23T06:38:20.551Z,96809.27
2018-07-23T06:41:46.172Z,96807.71
2018-07-23T06:45:10.880Z,96812.87
2018-07-23T06:48:35.900Z,96813.77
2018-07-23T06:52:00.763Z,96816.79
2018-07-23T06:55:25.638Z,96814.54
2018-07-23T06:58:50.676Z,96816.48
2018-07-23T07:02:15.701Z,96825.89
2018-07-23T07:05:40.347Z,96825.32
2018-07-23T07:09:07.650Z,96831.63
2018-07-23T07:12:32.399Z,96826.13
2018-07-23T07:15:57.109Z,96821.44
2018-07-23T07:19:21.804Z,96833.67
2018-07-23T07:22:46.461Z,96825.27
2018-07-23T07:26:11.162Z,96831.51
2018-07-23T07:29:35.868Z,96833.23
2018-07-23T07:33:00.522Z,96834.59
2018-07-23T07:36:25.224Z,96829.22
2018-07-23T07:39:49.925Z,96831.84
2018-07-23T07:43:14.278Z,96835.64
2018-07-23T07:46:40.202Z,96835.11
2018-07-23T07:50:05.372Z,96830.28
2018-07-23T07:53:30.126Z,96833.38
2018-07-23T07:56:54.966Z,96833.62
2018-07-23T08:00:21.936Z,96834.00
2018-07-23T08:03:47.713Z,96835.27
2018-07-23T08:07:13.925Z,96837.97
2018-07-23T08:10:39.621Z,96840.64
2018-07-23T08:14:04.470Z,96840.02
2018-07-23T08:17:29.238Z,96840.84
2018-07-23T08:20:53.907Z,96843.28
2018-07-23T08:24:18.712Z,96844.73
2018-07-23T08:27:43.488Z,96845.44
2018-07-23T08:31:08.113Z,96841.27
2018-07-23T08:34:32.961Z,96841.70
2018-07-23T08:37:57.593Z,96846.54
2018-07-23T08:41:22.414Z,96850.09
2018-07-23T08:44:47.130Z,96856.48
2018-07-23T08:48:11.880Z,96855.66
2018-07-23T08:51:36.528Z,96852.63
2018-07-23T08:55:01.321Z,96851.97
2018-07-23T08:58:27.005Z,96853.51
2018-07-23T09:01:51.340Z,96848.31
2018-07-23T09:05:16.026Z,96850.28
2018-07-23T09:08:40.744Z,96855.84
2018-07-23T09:12:05.488Z,96857.30
2018-07-23T09:15:29.840Z,96849.53
2018-07-23T09:18:54.508Z,96855.91
2018-07-23T09:22:19.364Z,96855.50
2018-07-23T09:25:48.726Z,96854.53
2018-07-23T09:29:14.989Z,96853.49
2018-07-23T09:32:40.167Z,96850.96
2018-07-23T09:36:07.257Z,96857.25
2018-07-23T09:39:32.301Z,96851.80
2018-07-23T09:42:57.477Z,96851.80
2018-07-23T09:46:23.237Z,96850.78
2018-07-23T09:49:47.997Z,96856.37
2018-07-23T09:53:12.753Z,96851.25
2018-07-23T09:56:37.513Z,96854.19
2018-07-23T10:00:02.276Z,96844.22
2018-07-23T10:03:27.259Z,96843.36
2018-07-23T10:06:51.895Z,96844.39
2018-07-23T10:10:17.628Z,96848.86
2018-07-23T10:13:42.061Z,96836.25
2018-07-23T10:17:06.407Z,96838.60
2018-07-23T10:20:31.235Z,96836.56
2018-07-23T10:23:56.010Z,96835.77
2018-07-23T10:27:20.785Z,96843.16
2018-07-23T10:30:45.465Z,96843.48
2018-07-23T10:34:10.286Z,96835.69
2018-07-23T10:37:34.933Z,96835.70
2018-07-23T10:40:59.741Z,96831.88
2018-07-23T10:44:24.491Z,96829.17
2018-07-23T10:47:49.257Z,96837.63
2018-07-23T10:51:14.965Z,96838.85
2018-07-23T10:54:39.625Z,96836.91
2018-07-23T10:58:04.360Z,96833.27
2018-07-23T11:01:28.714Z,96846.02
2018-07-23T11:04:57.635Z,96835.48
2018-07-23T11:08:29.434Z,96831.15
2018-07-23T11:11:54.229Z,96829.19
2018-07-23T11:15:18.992Z,96828.20
2018-07-23T11:18:43.889Z,96830.09
2018-07-23T11:22:08.703Z,96833.95
2018-07-23T11:25:40.663Z,96824.84
2018-07-23T11:28:57.868Z,96828.83
2018-07-23T11:32:22.622Z,96826.02
2018-07-23T11:35:47.540Z,96823.24
2018-07-23T11:39:12.710Z,96818.25
2018-07-23T11:42:37.421Z,96815.72
2018-07-23T11:46:01.822Z,96811.88
2018-07-23T11:49:26.520Z,96810.41
2018-07-23T11:52:51.205Z,96806.39
2018-07-23T11:56:15.889Z,96799.17
2018-07-23T11:59:40.590Z,96799.16
2018-07-23T12:03:04.984Z,96797.79
2018-07-23T12:06:29.376Z,96797.58
2018-07-23T12:09:54.069Z,96796.23
2018-07-23T12:13:18.760Z,96803.30
2018-07-23T12:16:43.405Z,96800.61
2018-07-23T12:20:08.085Z,96799.25
2018-07-23T12:23:32.911Z,96795.08
2018-07-23T12:26:57.207Z,96793.95
2018-07-23T12:30:21.892Z,96792.61
2018-07-23T12:33:47.585Z,96801.34
2018-07-23T12:37:11.886Z,96797.30
2018-07-23T12:40:36.218Z,96792.12
2018-07-23T12:44:01.856Z,96794.25
2018-07-23T12:47:26.564Z,96794.62
2018-07-23T12:50:52.688Z,96792.95
2018-07-23T12:54:21.706Z,96796.77
2018-07-23T12:57:46.756Z,96794.27
2018-07-23T13:01:18.544Z,96790.45
2018-07-23T13:04:44.312Z,96796.59
2018-07-23T13:08:12.876Z,96803.23
2018-07-23T13:11:38.522Z,96800.14
2018-07-23T13:15:03.180Z,96800.97
2018-07-23T13:18:28.473Z,96803.07
2018-07-23T13:21:54.363Z,96806.52
2018-07-23T13:25:22.176Z,96790.88
2018-07-23T13:28:47.345Z,96788.63
2018-07-23T13:32:14.886Z,96794.21
2018-07-23T13:35:41.619Z,96792.56
2018-07-23T13:39:19.861Z,96784.36
2018-07-23T13:42:44.894Z,96780.20
2018-07-23T13:46:10.291Z,96775.98
2018-07-23T13:49:35.081Z,96775.25
2018-07-23T13:52:59.455Z,96771.42
2018-07-23T13:56:24.149Z,96769.50
2018-07-23T13:59:50.065Z,96767.56
2018-07-23T14:03:14.822Z,96764.56
2018-07-23T14:06:39.533Z,96761.48
2018-07-23T14:10:04.842Z,96764.91
2018-07-23T14:13:29.472Z,96747.71
2018-07-23T14:16:54.237Z,96744.18
2018-07-23T14:20:18.937Z,96744.48
2018-07-23T14:23:43.644Z,96736.47
2018-07-23T14:27:08.433Z,96734.80
2018-07-23T14:30:33.189Z,96733.01
2018-07-23T14:33:57.885Z,96730.14
2018-07-23T14:37:23.528Z,96734.33
2018-07-23T14:40:48.216Z,96726.20
2018-07-23T14:44:12.569Z,96718.81
2018-07-23T14:47:38.387Z,96720.70
2018-07-23T14:51:11.280Z,96716.52
2018-07-23T14:54:36.365Z,96714.03
2018-07-23T14:58:01.153Z,96711.36
2018-07-23T15:01:25.893Z,96706.73
2018-07-23T15:04:50.527Z,96704.01
2018-07-23T15:08:15.293Z,96699.80
2018-07-23T15:11:39.625Z,96710.60
2018-07-23T15:15:04.134Z,96710.72
2018-07-23T15:18:28.839Z,96703.15
2018-07-23T15:21:53.592Z,96698.41
2018-07-23T15:25:18.297Z,96686.63
2018-07-23T15:28:42.926Z,96696.59
2018-07-23T15:32:07.717Z,96698.52
2018-07-23T15:35:32.417Z,96693.63
2018-07-23T15:38:57.106Z,96692.75
2018-07-23T15:42:21.858Z,96693.84
2018-07-23T15:45:46.836Z,96687.21
2018-07-23T15:49:11.256Z,96690.09
2018-07-23T15:52:36.005Z,96691.38
2018-07-23T15:56:00.723Z,96681.31
2018-07-23T15:59:25.778Z,96684.03
2018-07-23T16:02:50.501Z,96680.47
2018-07-23T16:06:15.292Z,96678.02
2018-07-23T16:09:40.043Z,96685.73
2018-07-23T16:13:04.770Z,96674.55
2018-07-23T16:16:29.534Z,96672.09
2018-07-23T16:19:54.224Z,96673.48
2018-07-23T16:23:19.090Z,96672.86
2018-07-23T16:26:43.880Z,96675.05
2018-07-23T16:30:09.621Z,96668.89
2018-07-23T16:33:43.842Z,96668.80
2018-07-23T16:37:17.125Z,96670.20
2018-07-23T16:40:41.776Z,96670.58
2018-07-23T16:44:08.260Z,96672.89
2018-07-23T16:47:32.930Z,96667.71
2018-07-23T16:50:57.627Z,96671.13
2018-07-23T16:54:22.401Z,96663.88
2018-07-23T16:57:47.169Z,96663.27
2018-07-23T17:01:12.001Z,96664.13
2018-07-23T17:04:36.735Z,96668.91
2018-07-23T17:08:01.413Z,96662.53
2018-07-23T17:11:25.807Z,96671.45
2018-07-23T17:14:50.550Z,96663.69
2018-07-23T17:18:15.386Z,96663.70
2018-07-23T17:21:40.025Z,96669.73
2018-07-23T17:25:04.763Z,96664.70
2018-07-23T17:28:29.487Z,96667.25
2018-07-23T17:31:54.191Z,96662.45
2018-07-23T17:35:18.888Z,96659.36
2018-07-23T17:38:43.647Z,96658.68
2018-07-23T17:42:08.324Z,96660.05
2018-07-23T17:45:32.680Z,96656.85
2018-07-23T17:48:57.367Z,96660.89
2018-07-23T17:52:22.051Z,96661.00
2018-07-23T17:55:47.177Z,96669.38
2018-07-23T17:59:14.751Z,96661.69
2018-07-23T18:02:41.882Z,96659.45
2018-07-23T18:06:06.949Z,96662.76
2018-07-23T18:09:35.591Z,96670.23
2018-07-23T18:13:03.381Z,96671.83
2018-07-23T18:16:30.835Z,96673.40
2018-07-23T18:19:58.561Z,96684.52
2018-07-23T18:23:23.603Z,96675.98
2018-07-23T18:26:51.069Z,96676.63
2018-07-23T18:30:25.693Z,96678.31
2018-07-23T18:33:50.070Z,96681.34
2018-07-23T18:37:14.735Z,96679.85
2018-07-23T18:40:39.509Z,96679.83
2018-07-23T18:44:04.397Z,96678.50
2018-07-23T18:47:29.243Z,96683.80
2018-07-23T18:50:53.925Z,96685.11
2018-07-23T18:54:20.028Z,96692.58
2018-07-23T18:57:44.689Z,96690.36
2018-07-23T19:01:09.039Z,96692.91
2018-07-23T19:04:33.575Z,96701.28
2018-07-23T19:09:23.959Z,96700.28
2018-07-23T19:12:48.680Z,96708.17
2018-07-23T19:16:13.441Z,96709.48
2018-07-23T19:19:38.316Z,96709.11
2018-07-23T19:23:03.145Z,96714.23
2018-07-23T19:26:28.229Z,96713.16
2018-07-23T19:29:53.079Z,96716.58
2018-07-23T19:33:17.928Z,96719.22
2018-07-23T19:36:42.834Z,96718.80
2018-07-23T19:40:07.567Z,96725.24
2018-07-23T19:43:32.365Z,96728.64
2018-07-23T19:46:56.799Z,96727.97
2018-07-23T19:50:22.105Z,96727.67
2018-07-23T19:53:46.974Z,96729.91
2018-07-23T19:57:11.864Z,96733.82
2018-07-23T20:00:36.517Z,96736.84
2018-07-23T20:04:01.349Z,96733.00
2018-07-23T20:07:26.000Z,96736.24
2018-07-23T20:10:50.701Z,96736.84
2018-07-23T20:14:15.572Z,96739.11
2018-07-23T20:17:40.220Z,96735.14
2018-07-23T20:21:04.942Z,96737.37
2018-07-23T20:24:29.713Z,96732.42
2018-07-23T20:27:55.029Z,96734.05
2018-07-23T20:31:21.301Z,96739.12
2018-07-23T20:34:46.975Z,96738.12
2018-07-23T20:42:42.432Z,96729.57
2018-07-23T20:46:07.149Z,96727.55
2018-07-23T20:49:31.806Z,96725.34
2018-07-23T20:52:56.552Z,96725.61
2018-07-23T20:56:23.932Z,96727.61
2018-07-23T20:59:49.590Z,96725.61
2018-07-23T21:03:15.275Z,96726.80
2018-07-23T21:06:41.326Z,96729.00
2018-07-23T21:10:06.251Z,96734.55
2018-07-23T21:13:31.107Z,96732.50
2018-07-23T21:16:59.939Z,96727.50
2018-07-23T21:20:25.363Z,96728.36
2018-07-23T21:23:51.434Z,96734.31
2018-07-23T21:27:17.322Z,96734.09
2018-07-23T21:30:42.245Z,96728.27
2018-07-23T21:34:07.206Z,96723.47
2018-07-23T21:37:31.971Z,96723.75
2018-07-23T21:40:57.393Z,96732.63
2018-07-23T21:44:23.931Z,96731.37
2018-07-23T21:47:48.775Z,96731.84
2018-07-23T21:51:13.982Z,96730.98
2018-07-23T21:54:39.772Z,96727.83
2018-07-23T21:58:04.566Z,96729.22
2018-07-23T22:01:29.006Z,96732.61
2018-07-23T22:04:54.410Z,96728.20
2018-07-23T22:08:20.200Z,96725.15
2018-07-23T22:11:46.964Z,96726.13
2018-07-23T22:15:13.068Z,96720.03
2018-07-23T22:18:38.898Z,96712.81
2018-07-23T22:22:04.963Z,96711.77
2018-07-23T22:25:31.266Z,96713.08
2018-07-23T22:28:56.055Z,96709.36
2018-07-23T22:32:20.716Z,96707.77
2018-07-23T22:35:47.699Z,96706.86
2018-07-23T22:39:13.421Z,96708.35
2018-07-23T22:42:39.116Z,96705.48
2018-07-23T22:46:03.556Z,96699.41
2018-07-23T22:49:28.341Z,96700.81
2018-07-23T22:52:52.862Z,96695.41
2018-07-23T22:56:17.722Z,96691.36
2018-07-23T22:59:42.533Z,96684.92
2018-07-23T23:03:07.371Z,96683.54
2018-07-23T23:06:32.360Z,96679.11
2018-07-23T23:09:57.121Z,96678.63
2018-07-23T23:13:21.845Z,96670.32
2018-07-23T23:16:46.307Z,96672.56
2018-07-23T23:20:11.088Z,96673.14
2018-07-23T23:23:35.549Z,96675.83
2018-07-23T23:27:00.301Z,96667.88
2018-07-23T23:30:25.312Z,96674.59
2018-07-23T23:33:50.074Z,96662.81
2018-07-23T23:37:14.780Z,96668.59
2018-07-23T23:40:39.521Z,96664.13
2018-07-23T23:44:03.853Z,96662.37
2018-07-23T23:47:28.552Z,96666.25
2018-07-23T23:50:53.215Z,96665.30
2018-07-23T23:54:17.900Z,96663.25
2018-07-23T23:57:42.579Z,96658.84
